sensor_id;sensor_type;location;lat;lon;timestamp;P1;durP1;ratioP1;P2;durP2;ratioP2
19816;SDS011;68323;49.394;8.434;2023-12-29T00:01:15;9.57;;;7.17;;
19816;SDS011;68323;49.394;8.434;2023-12-29T00:03:43;9.47;;;7.13;;
19816;SDS011;68323;49.394;8.434;2023-12-29T00:06:09;9.33;;;6.80;;
19816;SDS011;68323;49.394;8.434;2023-12-29T00:08:36;11.03;;;7.37;;
19816;SDS011;68323;49.394;8.434;2023-12-29T00:11:04;9.73;;;7.20;;
19816;SDS011;68323;49.394;8.434;2023-12-29T00:13:32;11.50;;;7.83;;
19816;SDS011;68323;49.394;8.434;2023-12-29T00:15:58;12.90;;;7.60;;
19816;SDS011;68323;49.394;8.434;2023-12-29T00:18:24;11.93;;;7.80;;
19816;SDS011;68323;49.394;8.434;2023-12-29T00:20:53;8.97;;;7.23;;
19816;SDS011;68323;49.394;8.434;2023-12-29T00:23:23;9.87;;;7.20;;
19816;SDS011;68323;49.394;8.434;2023-12-29T00:25:55;10.67;;;7.03;;
19816;SDS011;68323;49.394;8.434;2023-12-29T00:28:21;9.77;;;6.97;;
19816;SDS011;68323;49.394;8.434;2023-12-29T00:30:51;9.47;;;6.37;;
19816;SDS011;68323;49.394;8.434;2023-12-29T00:33:17;9.80;;;6.70;;
19816;SDS011;68323;49.394;8.434;2023-12-29T00:35:43;8.57;;;6.53;;
19816;SDS011;68323;49.394;8.434;2023-12-29T00:38:08;8.53;;;6.70;;
19816;SDS011;68323;49.394;8.434;2023-12-29T00:40:34;10.80;;;6.50;;
19816;SDS011;68323;49.394;8.434;2023-12-29T00:43:00;9.93;;;6.80;;
19816;SDS011;68323;49.394;8.434;2023-12-29T00:45:26;9.40;;;6.43;;
19816;SDS011;68323;49.394;8.434;2023-12-29T00:47:57;10.90;;;6.70;;
19816;SDS011;68323;49.394;8.434;2023-12-29T00:50:28;8.97;;;6.40;;
19816;SDS011;68323;49.394;8.434;2023-12-29T00:52:56;11.43;;;6.70;;
19816;SDS011;68323;49.394;8.434;2023-12-29T00:55:24;10.03;;;7.00;;
19816;SDS011;68323;49.394;8.434;2023-12-29T00:57:52;10.77;;;7.07;;
19816;SDS011;68323;49.394;8.434;2023-12-29T01:00:23;9.33;;;6.83;;
19816;SDS011;68323;49.394;8.434;2023-12-29T01:02:54;10.87;;;6.77;;
19816;SDS011;68323;49.394;8.434;2023-12-29T01:05:22;13.93;;;7.57;;
19816;SDS011;68323;49.394;8.434;2023-12-29T01:07:58;13.07;;;8.10;;
19816;SDS011;68323;49.394;8.434;2023-12-29T01:10:26;17.00;;;9.60;;
19816;SDS011;68323;49.394;8.434;2023-12-29T01:13:02;14.87;;;8.07;;
19816;SDS011;68323;49.394;8.434;2023-12-29T01:15:31;11.57;;;8.07;;
19816;SDS011;68323;49.394;8.434;2023-12-29T01:18:11;13.70;;;8.30;;
19816;SDS011;68323;49.394;8.434;2023-12-29T01:20:42;13.37;;;8.63;;
19816;SDS011;68323;49.394;8.434;2023-12-29T01:23:18;12.20;;;8.27;;
19816;SDS011;68323;49.394;8.434;2023-12-29T01:25:49;12.63;;;7.77;;
19816;SDS011;68323;49.394;8.434;2023-12-29T01:28:26;9.37;;;6.77;;
19816;SDS011;68323;49.394;8.434;2023-12-29T01:30:51;10.00;;;7.07;;
19816;SDS011;68323;49.394;8.434;2023-12-29T01:33:22;11.40;;;7.23;;
19816;SDS011;68323;49.394;8.434;2023-12-29T01:35:50;11.23;;;7.23;;
19816;SDS011;68323;49.394;8.434;2023-12-29T01:38:19;9.67;;;7.00;;
19816;SDS011;68323;49.394;8.434;2023-12-29T01:40:50;9.90;;;7.07;;
19816;SDS011;68323;49.394;8.434;2023-12-29T01:43:15;10.17;;;7.20;;
19816;SDS011;68323;49.394;8.434;2023-12-29T01:45:41;9.87;;;7.27;;
19816;SDS011;68323;49.394;8.434;2023-12-29T01:48:07;10.10;;;7.00;;
19816;SDS011;68323;49.394;8.434;2023-12-29T01:50:40;9.77;;;6.50;;
19816;SDS011;68323;49.394;8.434;2023-12-29T01:53:06;10.37;;;7.30;;
19816;SDS011;68323;49.394;8.434;2023-12-29T01:55:34;11.67;;;7.53;;
19816;SDS011;68323;49.394;8.434;2023-12-29T01:58:03;10.27;;;7.30;;
19816;SDS011;68323;49.394;8.434;2023-12-29T02:00:42;10.80;;;7.10;;
19816;SDS011;68323;49.394;8.434;2023-12-29T02:03:17;10.07;;;7.17;;
19816;SDS011;68323;49.394;8.434;2023-12-29T02:05:43;10.50;;;7.67;;
19816;SDS011;68323;49.394;8.434;2023-12-29T02:08:21;12.13;;;7.77;;
19816;SDS011;68323;49.394;8.434;2023-12-29T02:10:52;8.93;;;6.90;;
19816;SDS011;68323;49.394;8.434;2023-12-29T02:13:23;9.83;;;7.13;;
19816;SDS011;68323;49.394;8.434;2023-12-29T02:15:52;12.53;;;7.00;;
19816;SDS011;68323;49.394;8.434;2023-12-29T02:18:30;9.33;;;6.63;;
19816;SDS011;68323;49.394;8.434;2023-12-29T02:21:08;9.83;;;6.57;;
19816;SDS011;68323;49.394;8.434;2023-12-29T02:23:34;9.23;;;6.33;;
19816;SDS011;68323;49.394;8.434;2023-12-29T02:26:04;10.07;;;6.97;;
19816;SDS011;68323;49.394;8.434;2023-12-29T02:28:39;12.27;;;6.90;;
19816;SDS011;68323;49.394;8.434;2023-12-29T02:31:23;8.97;;;6.50;;
19816;SDS011;68323;49.394;8.434;2023-12-29T02:33:59;8.90;;;6.80;;
19816;SDS011;68323;49.394;8.434;2023-12-29T02:36:36;10.50;;;6.80;;
19816;SDS011;68323;49.394;8.434;2023-12-29T02:39:08;9.87;;;7.10;;
19816;SDS011;68323;49.394;8.434;2023-12-29T02:41:45;10.90;;;6.60;;
19816;SDS011;68323;49.394;8.434;2023-12-29T02:44:13;11.37;;;7.00;;
19816;SDS011;68323;49.394;8.434;2023-12-29T02:46:42;10.23;;;6.23;;
19816;SDS011;68323;49.394;8.434;2023-12-29T02:49:10;9.33;;;6.00;;
19816;SDS011;68323;49.394;8.434;2023-12-29T02:51:38;10.80;;;6.73;;
19816;SDS011;68323;49.394;8.434;2023-12-29T02:54:10;7.37;;;5.73;;
19816;SDS011;68323;49.394;8.434;2023-12-29T02:56:39;9.07;;;5.97;;
19816;SDS011;68323;49.394;8.434;2023-12-29T02:59:22;8.73;;;6.20;;
19816;SDS011;68323;49.394;8.434;2023-12-29T03:02:01;9.20;;;5.70;;
19816;SDS011;68323;49.394;8.434;2023-12-29T03:04:33;9.43;;;6.30;;
19816;SDS011;68323;49.394;8.434;2023-12-29T03:06:59;8.07;;;5.97;;
19816;SDS011;68323;49.394;8.434;2023-12-29T03:09:25;7.10;;;5.53;;
19816;SDS011;68323;49.394;8.434;2023-12-29T03:11:50;8.50;;;4.90;;
19816;SDS011;68323;49.394;8.434;2023-12-29T03:14:19;8.27;;;5.80;;
19816;SDS011;68323;49.394;8.434;2023-12-29T03:16:47;8.47;;;5.30;;
19816;SDS011;68323;49.394;8.434;2023-12-29T03:19:19;7.87;;;5.27;;
19816;SDS011;68323;49.394;8.434;2023-12-29T03:21:54;7.03;;;4.70;;
19816;SDS011;68323;49.394;8.434;2023-12-29T03:24:20;5.77;;;5.00;;
19816;SDS011;68323;49.394;8.434;2023-12-29T03:26:51;7.07;;;5.13;;
19816;SDS011;68323;49.394;8.434;2023-12-29T03:29:21;6.90;;;5.30;;
19816;SDS011;68323;49.394;8.434;2023-12-29T03:31:49;8.00;;;5.57;;
19816;SDS011;68323;49.394;8.434;2023-12-29T03:34:25;8.23;;;5.77;;
19816;SDS011;68323;49.394;8.434;2023-12-29T03:36:58;7.40;;;5.60;;
19816;SDS011;68323;49.394;8.434;2023-12-29T03:39:27;8.87;;;6.00;;
19816;SDS011;68323;49.394;8.434;2023-12-29T03:42:00;9.37;;;5.93;;
19816;SDS011;68323;49.394;8.434;2023-12-29T03:44:30;11.00;;;6.47;;
19816;SDS011;68323;49.394;8.434;2023-12-29T03:46:56;9.47;;;6.13;;
19816;SDS011;68323;49.394;8.434;2023-12-29T03:49:25;9.63;;;6.27;;
19816;SDS011;68323;49.394;8.434;2023-12-29T03:51:53;8.33;;;5.97;;
19816;SDS011;68323;49.394;8.434;2023-12-29T03:54:21;8.63;;;6.20;;
19816;SDS011;68323;49.394;8.434;2023-12-29T03:56:52;9.60;;;6.37;;
19816;SDS011;68323;49.394;8.434;2023-12-29T03:59:18;10.50;;;6.40;;
19816;SDS011;68323;49.394;8.434;2023-12-29T04:01:44;8.93;;;6.23;;
19816;SDS011;68323;49.394;8.434;2023-12-29T04:04:10;9.80;;;6.70;;
19816;SDS011;68323;49.394;8.434;2023-12-29T04:06:35;11.27;;;7.50;;
19816;SDS011;68323;49.394;8.434;2023-12-29T04:09:04;9.13;;;6.97;;
19816;SDS011;68323;49.394;8.434;2023-12-29T04:11:33;10.40;;;7.50;;
19816;SDS011;68323;49.394;8.434;2023-12-29T04:14:08;10.30;;;7.83;;
19816;SDS011;68323;49.394;8.434;2023-12-29T04:16:37;10.37;;;7.43;;
19816;SDS011;68323;49.394;8.434;2023-12-29T04:19:06;11.77;;;7.50;;
19816;SDS011;68323;49.394;8.434;2023-12-29T04:21:34;11.10;;;7.50;;
19816;SDS011;68323;49.394;8.434;2023-12-29T04:24:04;10.37;;;7.37;;
19816;SDS011;68323;49.394;8.434;2023-12-29T04:26:35;12.40;;;7.90;;
19816;SDS011;68323;49.394;8.434;2023-12-29T04:29:01;10.37;;;7.17;;
19816;SDS011;68323;49.394;8.434;2023-12-29T04:31:30;8.87;;;6.70;;
19816;SDS011;68323;49.394;8.434;2023-12-29T04:33:57;9.43;;;6.80;;
19816;SDS011;68323;49.394;8.434;2023-12-29T04:36:23;10.07;;;7.30;;
19816;SDS011;68323;49.394;8.434;2023-12-29T04:38:49;10.17;;;6.90;;
19816;SDS011;68323;49.394;8.434;2023-12-29T04:41:17;10.53;;;6.80;;
19816;SDS011;68323;49.394;8.434;2023-12-29T04:43:46;8.30;;;6.50;;
19816;SDS011;68323;49.394;8.434;2023-12-29T04:46:14;8.67;;;6.83;;
19816;SDS011;68323;49.394;8.434;2023-12-29T04:48:42;9.57;;;6.70;;
19816;SDS011;68323;49.394;8.434;2023-12-29T04:51:08;11.50;;;6.80;;
19816;SDS011;68323;49.394;8.434;2023-12-29T04:53:34;10.47;;;6.90;;
19816;SDS011;68323;49.394;8.434;2023-12-29T04:56:04;8.17;;;6.37;;
19816;SDS011;68323;49.394;8.434;2023-12-29T04:58:33;10.17;;;7.30;;
19816;SDS011;68323;49.394;8.434;2023-12-29T05:01:02;9.33;;;6.67;;
19816;SDS011;68323;49.394;8.434;2023-12-29T05:03:33;9.53;;;6.17;;
19816;SDS011;68323;49.394;8.434;2023-12-29T05:06:06;8.83;;;6.60;;
19816;SDS011;68323;49.394;8.434;2023-12-29T05:08:32;12.37;;;6.40;;
19816;SDS011;68323;49.394;8.434;2023-12-29T05:11:00;8.83;;;6.60;;
19816;SDS011;68323;49.394;8.434;2023-12-29T05:13:28;8.90;;;6.23;;
19816;SDS011;68323;49.394;8.434;2023-12-29T05:15:54;8.90;;;5.90;;
19816;SDS011;68323;49.394;8.434;2023-12-29T05:18:25;10.20;;;6.33;;
19816;SDS011;68323;49.394;8.434;2023-12-29T05:20:58;14.67;;;6.10;;
19816;SDS011;68323;49.394;8.434;2023-12-29T05:23:28;7.10;;;5.57;;
19816;SDS011;68323;49.394;8.434;2023-12-29T05:25:54;8.87;;;5.50;;
19816;SDS011;68323;49.394;8.434;2023-12-29T05:28:20;7.67;;;5.23;;
19816;SDS011;68323;49.394;8.434;2023-12-29T05:30:45;7.07;;;5.17;;
19816;SDS011;68323;49.394;8.434;2023-12-29T05:33:11;6.53;;;5.10;;
19816;SDS011;68323;49.394;8.434;2023-12-29T05:35:37;6.73;;;4.97;;
19816;SDS011;68323;49.394;8.434;2023-12-29T05:38:05;7.83;;;5.20;;
19816;SDS011;68323;49.394;8.434;2023-12-29T05:40:36;7.63;;;4.97;;
19816;SDS011;68323;49.394;8.434;2023-12-29T05:43:04;8.10;;;5.33;;
19816;SDS011;68323;49.394;8.434;2023-12-29T05:45:32;8.40;;;4.67;;
19816;SDS011;68323;49.394;8.434;2023-12-29T05:48:16;7.10;;;4.57;;
19816;SDS011;68323;49.394;8.434;2023-12-29T05:50:51;6.27;;;4.77;;
19816;SDS011;68323;49.394;8.434;2023-12-29T05:53:30;5.93;;;4.80;;
19816;SDS011;68323;49.394;8.434;2023-12-29T05:56:03;7.90;;;5.03;;
19816;SDS011;68323;49.394;8.434;2023-12-29T05:58:32;5.80;;;4.47;;
19816;SDS011;68323;49.394;8.434;2023-12-29T06:01:03;7.50;;;4.87;;
19816;SDS011;68323;49.394;8.434;2023-12-29T06:03:51;6.67;;;4.47;;
19816;SDS011;68323;49.394;8.434;2023-12-29T06:06:22;7.17;;;4.67;;
19816;SDS011;68323;49.394;8.434;2023-12-29T06:08:50;7.43;;;4.47;;
19816;SDS011;68323;49.394;8.434;2023-12-29T06:11:18;6.70;;;4.73;;
19816;SDS011;68323;49.394;8.434;2023-12-29T06:13:44;7.83;;;5.00;;
19816;SDS011;68323;49.394;8.434;2023-12-29T06:16:21;4.90;;;4.00;;
19816;SDS011;68323;49.394;8.434;2023-12-29T06:18:48;5.87;;;4.70;;
19816;SDS011;68323;49.394;8.434;2023-12-29T06:21:14;6.20;;;4.23;;
19816;SDS011;68323;49.394;8.434;2023-12-29T06:23:39;5.80;;;4.50;;
19816;SDS011;68323;49.394;8.434;2023-12-29T06:26:17;6.33;;;4.23;;
19816;SDS011;68323;49.394;8.434;2023-12-29T06:28:50;6.40;;;4.60;;
19816;SDS011;68323;49.394;8.434;2023-12-29T06:31:16;7.20;;;4.20;;
19816;SDS011;68323;49.394;8.434;2023-12-29T06:33:43;5.23;;;3.90;;
19816;SDS011;68323;49.394;8.434;2023-12-29T06:36:09;4.73;;;3.97;;
19816;SDS011;68323;49.394;8.434;2023-12-29T06:38:41;4.40;;;3.53;;
19816;SDS011;68323;49.394;8.434;2023-12-29T06:41:22;5.50;;;3.77;;
19816;SDS011;68323;49.394;8.434;2023-12-29T06:43:52;5.10;;;3.60;;
19816;SDS011;68323;49.394;8.434;2023-12-29T06:46:20;3.20;;;2.73;;
19816;SDS011;68323;49.394;8.434;2023-12-29T06:48:46;4.97;;;2.90;;
19816;SDS011;68323;49.394;8.434;2023-12-29T06:51:16;3.50;;;2.80;;
19816;SDS011;68323;49.394;8.434;2023-12-29T06:53:43;3.43;;;2.80;;
19816;SDS011;68323;49.394;8.434;2023-12-29T06:56:17;3.50;;;2.97;;
19816;SDS011;68323;49.394;8.434;2023-12-29T06:58:52;3.93;;;3.00;;
19816;SDS011;68323;49.394;8.434;2023-12-29T07:01:21;5.53;;;3.00;;
19816;SDS011;68323;49.394;8.434;2023-12-29T07:03:50;17.23;;;3.93;;
19816;SDS011;68323;49.394;8.434;2023-12-29T07:06:16;5.17;;;3.00;;
19816;SDS011;68323;49.394;8.434;2023-12-29T07:08:42;3.53;;;2.73;;
19816;SDS011;68323;49.394;8.434;2023-12-29T07:11:17;5.27;;;3.13;;
19816;SDS011;68323;49.394;8.434;2023-12-29T07:13:46;3.77;;;2.97;;
19816;SDS011;68323;49.394;8.434;2023-12-29T07:16:14;4.67;;;2.70;;
19816;SDS011;68323;49.394;8.434;2023-12-29T07:18:44;3.77;;;2.80;;
19816;SDS011;68323;49.394;8.434;2023-12-29T07:21:17;3.37;;;2.30;;
19816;SDS011;68323;49.394;8.434;2023-12-29T07:23:45;3.97;;;2.27;;
19816;SDS011;68323;49.394;8.434;2023-12-29T07:26:14;4.87;;;2.40;;
19816;SDS011;68323;49.394;8.434;2023-12-29T07:28:42;3.00;;;2.20;;
19816;SDS011;68323;49.394;8.434;2023-12-29T07:31:07;3.67;;;2.50;;
19816;SDS011;68323;49.394;8.434;2023-12-29T07:33:39;10.77;;;4.73;;
19816;SDS011;68323;49.394;8.434;2023-12-29T07:36:08;3.37;;;2.20;;
19816;SDS011;68323;49.394;8.434;2023-12-29T07:38:34;3.43;;;2.30;;
19816;SDS011;68323;49.394;8.434;2023-12-29T07:41:07;3.60;;;2.67;;
19816;SDS011;68323;49.394;8.434;2023-12-29T07:43:34;4.17;;;2.70;;
19816;SDS011;68323;49.394;8.434;2023-12-29T07:46:01;5.60;;;2.60;;
19816;SDS011;68323;49.394;8.434;2023-12-29T07:51:20;4.23;;;2.23;;
19816;SDS011;68323;49.394;8.434;2023-12-29T07:53:46;3.23;;;2.10;;
19816;SDS011;68323;49.394;8.434;2023-12-29T07:56:15;2.97;;;2.40;;
19816;SDS011;68323;49.394;8.434;2023-12-29T07:58:43;3.37;;;2.20;;
19816;SDS011;68323;49.394;8.434;2023-12-29T08:01:11;6.10;;;2.57;;
19816;SDS011;68323;49.394;8.434;2023-12-29T08:03:40;3.53;;;2.40;;
19816;SDS011;68323;49.394;8.434;2023-12-29T08:06:06;2.93;;;2.30;;
19816;SDS011;68323;49.394;8.434;2023-12-29T08:08:37;3.37;;;2.30;;
19816;SDS011;68323;49.394;8.434;2023-12-29T08:11:39;3.77;;;2.77;;
19816;SDS011;68323;49.394;8.434;2023-12-29T08:17:17;3.67;;;1.90;;
19816;SDS011;68323;49.394;8.434;2023-12-29T08:20:17;2.90;;;2.00;;
19816;SDS011;68323;49.394;8.434;2023-12-29T08:22:51;2.40;;;1.70;;
19816;SDS011;68323;49.394;8.434;2023-12-29T08:25:20;3.60;;;2.20;;
19816;SDS011;68323;49.394;8.434;2023-12-29T08:27:48;3.60;;;2.07;;
19816;SDS011;68323;49.394;8.434;2023-12-29T08:30:17;2.67;;;1.80;;
19816;SDS011;68323;49.394;8.434;2023-12-29T08:32:42;2.30;;;1.80;;
19816;SDS011;68323;49.394;8.434;2023-12-29T08:35:08;3.00;;;1.90;;
19816;SDS011;68323;49.394;8.434;2023-12-29T08:37:34;3.20;;;2.00;;
19816;SDS011;68323;49.394;8.434;2023-12-29T08:40:10;2.90;;;1.80;;
19816;SDS011;68323;49.394;8.434;2023-12-29T08:42:41;3.87;;;2.10;;
19816;SDS011;68323;49.394;8.434;2023-12-29T08:45:20;3.13;;;2.13;;
19816;SDS011;68323;49.394;8.434;2023-12-29T08:47:57;3.03;;;1.90;;
19816;SDS011;68323;49.394;8.434;2023-12-29T08:50:30;3.40;;;2.33;;
19816;SDS011;68323;49.394;8.434;2023-12-29T08:52:59;3.30;;;2.20;;
19816;SDS011;68323;49.394;8.434;2023-12-29T08:55:46;2.90;;;2.27;;
19816;SDS011;68323;49.394;8.434;2023-12-29T08:58:17;4.40;;;2.83;;
19816;SDS011;68323;49.394;8.434;2023-12-29T09:00:43;4.33;;;3.10;;
19816;SDS011;68323;49.394;8.434;2023-12-29T09:03:12;3.30;;;2.73;;
19816;SDS011;68323;49.394;8.434;2023-12-29T09:05:48;4.70;;;3.50;;
19816;SDS011;68323;49.394;8.434;2023-12-29T09:08:13;4.10;;;3.07;;
19816;SDS011;68323;49.394;8.434;2023-12-29T09:10:42;4.97;;;3.23;;
19816;SDS011;68323;49.394;8.434;2023-12-29T09:13:16;4.17;;;3.57;;
19816;SDS011;68323;49.394;8.434;2023-12-29T09:15:50;3.87;;;3.33;;
19816;SDS011;68323;49.394;8.434;2023-12-29T09:18:21;6.10;;;3.83;;
19816;SDS011;68323;49.394;8.434;2023-12-29T09:20:56;5.00;;;3.63;;
19816;SDS011;68323;49.394;8.434;2023-12-29T09:23:34;3.90;;;3.50;;
19816;SDS011;68323;49.394;8.434;2023-12-29T09:26:12;5.73;;;3.20;;
19816;SDS011;68323;49.394;8.434;2023-12-29T09:28:41;4.83;;;3.33;;
19816;SDS011;68323;49.394;8.434;2023-12-29T09:31:15;6.13;;;3.53;;
19816;SDS011;68323;49.394;8.434;2023-12-29T09:37:19;3.90;;;2.90;;
19816;SDS011;68323;49.394;8.434;2023-12-29T09:39:56;2.73;;;2.30;;
19816;SDS011;68323;49.394;8.434;2023-12-29T09:43:19;3.40;;;2.50;;
19816;SDS011;68323;49.394;8.434;2023-12-29T09:46:42;3.70;;;2.10;;
19816;SDS011;68323;49.394;8.434;2023-12-29T09:49:17;3.13;;;1.83;;
19816;SDS011;68323;49.394;8.434;2023-12-29T09:55:03;3.80;;;2.17;;
19816;SDS011;68323;49.394;8.434;2023-12-29T09:57:38;3.83;;;1.70;;
19816;SDS011;68323;49.394;8.434;2023-12-29T10:00:10;3.27;;;1.77;;
19816;SDS011;68323;49.394;8.434;2023-12-29T10:02:41;3.07;;;2.07;;
19816;SDS011;68323;49.394;8.434;2023-12-29T10:05:10;2.67;;;1.13;;
19816;SDS011;68323;49.394;8.434;2023-12-29T10:07:38;4.30;;;1.67;;
19816;SDS011;68323;49.394;8.434;2023-12-29T10:10:06;5.10;;;2.53;;
19816;SDS011;68323;49.394;8.434;2023-12-29T10:12:32;3.90;;;2.63;;
19816;SDS011;68323;49.394;8.434;2023-12-29T10:15:12;2.60;;;1.30;;
19816;SDS011;68323;49.394;8.434;2023-12-29T10:18:04;3.57;;;1.70;;
19816;SDS011;68323;49.394;8.434;2023-12-29T10:20:45;3.57;;;1.50;;
19816;SDS011;68323;49.394;8.434;2023-12-29T10:26:10;2.27;;;1.10;;
19816;SDS011;68323;49.394;8.434;2023-12-29T10:28:36;1.83;;;1.07;;
19816;SDS011;68323;49.394;8.434;2023-12-29T10:31:04;1.87;;;1.10;;
19816;SDS011;68323;49.394;8.434;2023-12-29T10:33:30;2.50;;;1.20;;
19816;SDS011;68323;49.394;8.434;2023-12-29T10:36:01;1.77;;;1.20;;
19816;SDS011;68323;49.394;8.434;2023-12-29T10:38:32;1.63;;;0.80;;
19816;SDS011;68323;49.394;8.434;2023-12-29T10:41:14;2.43;;;1.00;;
19816;SDS011;68323;49.394;8.434;2023-12-29T10:43:41;1.83;;;1.07;;
19816;SDS011;68323;49.394;8.434;2023-12-29T10:46:08;3.13;;;1.47;;
19816;SDS011;68323;49.394;8.434;2023-12-29T10:48:34;4.27;;;1.10;;
19816;SDS011;68323;49.394;8.434;2023-12-29T10:51:01;2.30;;;1.10;;
19816;SDS011;68323;49.394;8.434;2023-12-29T10:53:29;2.20;;;0.90;;
19816;SDS011;68323;49.394;8.434;2023-12-29T10:55:55;2.80;;;1.17;;
19816;SDS011;68323;49.394;8.434;2023-12-29T10:58:26;3.37;;;1.20;;
19816;SDS011;68323;49.394;8.434;2023-12-29T11:00:57;2.53;;;1.30;;
19816;SDS011;68323;49.394;8.434;2023-12-29T11:03:25;4.40;;;1.80;;
19816;SDS011;68323;49.394;8.434;2023-12-29T11:05:58;4.97;;;2.57;;
19816;SDS011;68323;49.394;8.434;2023-12-29T11:08:26;6.17;;;3.43;;
19816;SDS011;68323;49.394;8.434;2023-12-29T11:10:53;7.20;;;3.33;;
19816;SDS011;68323;49.394;8.434;2023-12-29T11:13:20;4.27;;;1.80;;
19816;SDS011;68323;49.394;8.434;2023-12-29T11:15:46;6.47;;;3.83;;
19816;SDS011;68323;49.394;8.434;2023-12-29T11:18:14;6.70;;;3.93;;
19816;SDS011;68323;49.394;8.434;2023-12-29T11:20:41;6.33;;;3.90;;
19816;SDS011;68323;49.394;8.434;2023-12-29T11:23:10;2.83;;;1.60;;
19816;SDS011;68323;49.394;8.434;2023-12-29T11:25:38;1.57;;;0.97;;
19816;SDS011;68323;49.394;8.434;2023-12-29T11:28:08;2.23;;;0.93;;
19816;SDS011;68323;49.394;8.434;2023-12-29T11:30:36;2.00;;;0.90;;
19816;SDS011;68323;49.394;8.434;2023-12-29T11:38:53;1.13;;;0.60;;
19816;SDS011;68323;49.394;8.434;2023-12-29T11:44:14;2.23;;;1.00;;
19816;SDS011;68323;49.394;8.434;2023-12-29T11:46:50;1.23;;;1.00;;
19816;SDS011;68323;49.394;8.434;2023-12-29T11:49:16;0.87;;;0.70;;
19816;SDS011;68323;49.394;8.434;2023-12-29T11:51:42;1.20;;;0.80;;
19816;SDS011;68323;49.394;8.434;2023-12-29T11:54:08;1.33;;;0.70;;
19816;SDS011;68323;49.394;8.434;2023-12-29T11:56:35;1.13;;;0.67;;
19816;SDS011;68323;49.394;8.434;2023-12-29T12:01:51;1.80;;;0.77;;
19816;SDS011;68323;49.394;8.434;2023-12-29T12:07:03;1.27;;;0.77;;
19816;SDS011;68323;49.394;8.434;2023-12-29T12:09:29;3.10;;;0.80;;
19816;SDS011;68323;49.394;8.434;2023-12-29T12:11:55;2.03;;;0.80;;
19816;SDS011;68323;49.394;8.434;2023-12-29T12:17:06;2.07;;;0.80;;
19816;SDS011;68323;49.394;8.434;2023-12-29T12:19:33;1.73;;;0.90;;
19816;SDS011;68323;49.394;8.434;2023-12-29T12:22:00;1.13;;;0.80;;
19816;SDS011;68323;49.394;8.434;2023-12-29T12:24:27;1.63;;;1.00;;
19816;SDS011;68323;49.394;8.434;2023-12-29T12:26:54;1.63;;;0.97;;
19816;SDS011;68323;49.394;8.434;2023-12-29T12:29:20;0.90;;;0.80;;
19816;SDS011;68323;49.394;8.434;2023-12-29T12:31:53;1.30;;;1.00;;
19816;SDS011;68323;49.394;8.434;2023-12-29T12:34:19;1.10;;;1.00;;
19816;SDS011;68323;49.394;8.434;2023-12-29T12:36:52;2.10;;;1.00;;
19816;SDS011;68323;49.394;8.434;2023-12-29T12:39:18;1.50;;;1.00;;
19816;SDS011;68323;49.394;8.434;2023-12-29T12:41:44;1.93;;;1.03;;
19816;SDS011;68323;49.394;8.434;2023-12-29T12:44:14;2.80;;;1.27;;
19816;SDS011;68323;49.394;8.434;2023-12-29T12:49:07;1.83;;;1.30;;
19816;SDS011;68323;49.394;8.434;2023-12-29T12:51:33;2.67;;;1.10;;
19816;SDS011;68323;49.394;8.434;2023-12-29T12:53:59;1.50;;;1.20;;
19816;SDS011;68323;49.394;8.434;2023-12-29T12:56:25;1.57;;;1.13;;
19816;SDS011;68323;49.394;8.434;2023-12-29T12:58:56;1.57;;;1.30;;
19816;SDS011;68323;49.394;8.434;2023-12-29T13:01:23;32.50;;;1.90;;
19816;SDS011;68323;49.394;8.434;2023-12-29T13:03:49;3.60;;;1.27;;
19816;SDS011;68323;49.394;8.434;2023-12-29T13:06:16;2.87;;;1.43;;
19816;SDS011;68323;49.394;8.434;2023-12-29T13:08:44;2.67;;;1.43;;
19816;SDS011;68323;49.394;8.434;2023-12-29T13:11:13;1.97;;;1.30;;
19816;SDS011;68323;49.394;8.434;2023-12-29T13:13:39;1.53;;;1.10;;
19816;SDS011;68323;49.394;8.434;2023-12-29T13:16:05;3.50;;;1.40;;
19816;SDS011;68323;49.394;8.434;2023-12-29T13:18:32;2.70;;;1.30;;
19816;SDS011;68323;49.394;8.434;2023-12-29T13:20:58;2.23;;;1.57;;
19816;SDS011;68323;49.394;8.434;2023-12-29T13:23:26;1.83;;;1.40;;
19816;SDS011;68323;49.394;8.434;2023-12-29T13:25:54;3.70;;;1.50;;
19816;SDS011;68323;49.394;8.434;2023-12-29T13:28:21;1.83;;;1.40;;
19816;SDS011;68323;49.394;8.434;2023-12-29T13:30:48;4.90;;;1.50;;
19816;SDS011;68323;49.394;8.434;2023-12-29T13:33:26;2.17;;;1.20;;
19816;SDS011;68323;49.394;8.434;2023-12-29T13:35:54;2.93;;;1.30;;
19816;SDS011;68323;49.394;8.434;2023-12-29T13:38:27;1.67;;;1.30;;
19816;SDS011;68323;49.394;8.434;2023-12-29T13:43:22;1.50;;;1.20;;
19816;SDS011;68323;49.394;8.434;2023-12-29T13:45:50;1.60;;;1.20;;
19816;SDS011;68323;49.394;8.434;2023-12-29T13:48:17;2.07;;;1.50;;
19816;SDS011;68323;49.394;8.434;2023-12-29T13:50:48;4.83;;;1.43;;
19816;SDS011;68323;49.394;8.434;2023-12-29T13:53:17;4.70;;;1.33;;
19816;SDS011;68323;49.394;8.434;2023-12-29T13:55:44;4.00;;;1.37;;
19816;SDS011;68323;49.394;8.434;2023-12-29T13:58:11;2.13;;;1.10;;
19816;SDS011;68323;49.394;8.434;2023-12-29T14:00:41;3.17;;;1.30;;
19816;SDS011;68323;49.394;8.434;2023-12-29T14:03:22;1.70;;;1.20;;
19816;SDS011;68323;49.394;8.434;2023-12-29T14:05:56;2.57;;;1.57;;
19816;SDS011;68323;49.394;8.434;2023-12-29T14:08:26;1.90;;;1.43;;
19816;SDS011;68323;49.394;8.434;2023-12-29T14:10:59;1.80;;;1.50;;
19816;SDS011;68323;49.394;8.434;2023-12-29T14:13:26;3.43;;;1.80;;
19816;SDS011;68323;49.394;8.434;2023-12-29T14:15:54;2.30;;;1.47;;
19816;SDS011;68323;49.394;8.434;2023-12-29T14:20:52;1.20;;;1.10;;
19816;SDS011;68323;49.394;8.434;2023-12-29T14:23:19;1.90;;;1.30;;
19816;SDS011;68323;49.394;8.434;2023-12-29T14:25:46;1.23;;;1.10;;
19816;SDS011;68323;49.394;8.434;2023-12-29T14:28:14;2.80;;;1.40;;
19816;SDS011;68323;49.394;8.434;2023-12-29T14:30:43;1.90;;;1.40;;
19816;SDS011;68323;49.394;8.434;2023-12-29T14:33:09;2.13;;;1.13;;
19816;SDS011;68323;49.394;8.434;2023-12-29T14:35:35;2.67;;;1.20;;
19816;SDS011;68323;49.394;8.434;2023-12-29T14:38:01;3.10;;;1.43;;
19816;SDS011;68323;49.394;8.434;2023-12-29T14:40:27;1.87;;;1.23;;
19816;SDS011;68323;49.394;8.434;2023-12-29T14:42:55;1.33;;;1.17;;
19816;SDS011;68323;49.394;8.434;2023-12-29T14:45:21;3.30;;;1.03;;
19816;SDS011;68323;49.394;8.434;2023-12-29T14:47:46;2.60;;;1.40;;
19816;SDS011;68323;49.394;8.434;2023-12-29T14:50:14;2.10;;;1.20;;
19816;SDS011;68323;49.394;8.434;2023-12-29T14:52:40;3.50;;;1.57;;
19816;SDS011;68323;49.394;8.434;2023-12-29T14:55:09;3.33;;;1.90;;
19816;SDS011;68323;49.394;8.434;2023-12-29T14:57:35;1.97;;;1.20;;
19816;SDS011;68323;49.394;8.434;2023-12-29T15:00:00;3.33;;;1.50;;
19816;SDS011;68323;49.394;8.434;2023-12-29T15:02:29;3.13;;;2.10;;
19816;SDS011;68323;49.394;8.434;2023-12-29T15:04:54;5.57;;;2.60;;
19816;SDS011;68323;49.394;8.434;2023-12-29T15:07:20;4.70;;;1.93;;
19816;SDS011;68323;49.394;8.434;2023-12-29T15:09:48;1.63;;;1.40;;
19816;SDS011;68323;49.394;8.434;2023-12-29T15:12:17;7.83;;;2.40;;
19816;SDS011;68323;49.394;8.434;2023-12-29T15:14:43;7.00;;;3.27;;
19816;SDS011;68323;49.394;8.434;2023-12-29T15:17:08;4.23;;;3.00;;
19816;SDS011;68323;49.394;8.434;2023-12-29T15:19:35;2.63;;;1.90;;
19816;SDS011;68323;49.394;8.434;2023-12-29T15:22:01;4.97;;;3.20;;
19816;SDS011;68323;49.394;8.434;2023-12-29T15:24:26;7.23;;;4.00;;
19816;SDS011;68323;49.394;8.434;2023-12-29T15:26:52;6.27;;;3.80;;
19816;SDS011;68323;49.394;8.434;2023-12-29T15:29:17;12.40;;;5.83;;
19816;SDS011;68323;49.394;8.434;2023-12-29T15:31:43;14.20;;;7.10;;
19816;SDS011;68323;49.394;8.434;2023-12-29T15:34:11;8.73;;;4.53;;
19816;SDS011;68323;49.394;8.434;2023-12-29T15:36:37;4.40;;;1.90;;
19816;SDS011;68323;49.394;8.434;2023-12-29T15:39:03;3.00;;;1.60;;
19816;SDS011;68323;49.394;8.434;2023-12-29T15:41:31;3.97;;;2.10;;